< Typhoon 198427 1985 Season Typhoon 198502 >
Typhoon 198501 (FABIAN)
General InformationTrack Information on Google MapsDetailed Wind InformationList of All Images || Disaster Info.ResourceGoogle EarthGE AnimationAtom FeedGeoJSON
Detalied Best Track (Time Zone = UTC)
Year Month Day Hour Lat. Long. Pressure (hPa) Wind (kt) Class Image Chart
1985 1 4 18 8.0 133.0 1002 0 2 Image Chart
1985 1 5 00 9.0 132.0 1002 0 2 Image Chart
1985 1 5 06 10.0 131.0 1000 0 2 Image Chart
1985 1 5 12 11.5 130.5 996 45 3 Image Chart
1985 1 5 18 12.0 131.0 992 45 3 Image Chart
1985 1 6 00 12.5 132.0 990 50 4 Image Chart
1985 1 6 06 12.4 132.9 990 50 4 Image Chart
1985 1 6 12 12.1 133.5 992 50 4 Image Chart
1985 1 6 18 11.7 134.1 994 50 4 Image Chart
1985 1 7 00 11.4 134.7 994 40 3 Image Chart
1985 1 7 06 11.1 135.2 996 35 3 Image Chart
1985 1 7 12 11.0 135.5 998 35 3 Image Chart
1985 1 7 18 11.6 135.0 1000 35 3 Image Chart
1985 1 8 00 12.3 134.7 1000 35 3 Image Chart
1985 1 8 06 13.0 134.3 1000 40 3 Image Chart
1985 1 8 12 12.4 133.8 1000 35 3 Image Chart
1985 1 8 18 11.7 134.0 1000 35 3 Image Chart
1985 1 9 00 11.0 134.6 996 35 3 Image Chart
1985 1 9 06 10.4 135.2 994 45 3 Image Chart
1985 1 9 12 9.8 135.9 990 45 3 Image Chart
1985 1 9 18 9.3 136.6 990 45 3 Image Chart
1985 1 10 00 9.0 137.4 990 45 3 Image Chart
1985 1 10 06 9.3 138.3 990 45 3 Image Chart
1985 1 10 12 9.4 138.5 992 45 3 Image Chart
1985 1 10 18 9.4 138.6 992 45 3 Image Chart
1985 1 11 00 9.5 138.5 992 45 3 Image Chart
1985 1 11 06 9.6 138.4 994 45 3 Image Chart
1985 1 11 12 9.3 138.4 996 45 3 Image Chart
1985 1 11 18 9.1 138.5 998 45 3 Image Chart
1985 1 12 00 9.0 138.8 998 35 3 Image Chart
1985 1 12 06 9.0 139.0 1000 0 2 Image Chart
1985 1 12 12 9.0 139.0 1002 0 2 Image Chart
1985 1 12 18 9.0 138.0 1002 0 2 Image Chart
1985 1 13 00 9.0 137.0 1004 0 2 Image Chart
1985 1 13 06 9.0 136.5 1004 0 2 Image Chart
Japan Meteorological Agency Best Track Data | Correction Date : 1992-10-21
< Typhoon 198427 1985 Season Typhoon 198502 >

Help